Latest Weather Observations for Tasman Island

IDT60801

Issued at 12:02 pm EST Monday 25 July 2016 (issued every 30 minutes, with the page automatically refreshed every 10 minutes)

About weather observations | Map of weather stations | Latest weather observations for TAS | Other Formats
Station Details ID: 094155 Name: TASMAN ISLAND Lat: -43.24 Lon: 148.00 Height: 240.0 m
Data from the previous 72 hours. | See also: Recent months at Tasman Island
Date/Time
EST
Temp
°C
App
Temp
°C
Dew
Point
°C
Rel
Hum
%
Delta-T
°C
Wind Press
QNH
hPa
Press
MSL
hPa
Rain since
9am
mm
Dir  Spd
km/h
Gust
km/h
Spd
kts
Gust
kts
25/12:00pm 9.2 4.9 3.0 65 2.7 WNW 15 28 8 15 996.5 996.8 0.0
25/11:30am 9.3 4.2 3.3 66 2.6 NW 19 30 10 16 997.1 997.3 0.0
25/11:00am 9.2 5.3 3.6 68 2.5 NW 13 19 7 10 997.4 997.6 0.0
25/10:30am 8.9 5.4 3.5 69 2.4 NW 11 19 6 10 997.5 997.7 0.0
25/10:00am 8.1 3.3 2.6 68 2.4 NW 17 24 9 13 997.5 997.7 0.0
25/09:30am 7.5 2.1 2.4 70 2.1 NNW 20 37 11 20 997.8 998.0 0.0
25/09:00am 7.5 2.1 2.2 69 2.2 NW 20 33 11 18 997.7 997.9 0.0
25/08:30am 7.6 2.2 2.3 69 2.2 NW 20 30 11 16 997.9 998.1 0.0
25/08:00am 7.0 2.6 2.5 73 1.9 NNW 15 26 8 14 997.9 998.1 0.0
25/07:30am 6.4 2.3 2.1 74 1.8 NNW 13 17 7 9 997.8 998.0 0.0
25/07:00am 7.6 2.1 2.1 68 2.3 NW 20 28 11 15 998.0 998.2 0.0
25/06:30am 7.4 2.0 2.3 70 2.1 NW 20 28 11 15 998.0 998.2 0.0
25/06:00am 7.4 2.1 2.1 69 2.2 NW 19 28 10 15 998.1 998.3 0.0
25/05:30am 6.6 1.3 1.9 72 1.9 NNW 19 33 10 18 998.1 998.3 0.0
25/05:00am 6.4 1.1 1.7 72 1.9 NW 19 30 10 16 998.3 998.5 0.0
25/04:30am 6.2 1.6 1.7 73 1.8 NNW 15 22 8 12 998.4 998.6 0.0
25/04:00am 6.2 0.9 1.7 73 1.9 NNW 19 33 10 18 998.2 998.4 0.0
25/03:30am 5.8 0.8 1.5 74 1.7 NNW 17 32 9 17 998.5 998.7 0.0
25/03:00am 5.6 0.9 1.2 73 1.8 NNW 15 28 8 15 998.8 999.1 0.0
25/02:30am 6.6 1.2 1.3 69 2.2 NW 19 30 10 16 998.8 999.1 0.0
25/02:00am 6.3 2.1 1.8 73 1.9 NNW 13 24 7 13 999.1 999.4 0.0
25/01:30am 5.6 1.7 1.2 73 1.8 NNW 11 20 6 11 999.2 999.5 0.0
25/01:00am 5.7 2.6 1.1 72 1.9 NNW 7 19 4 10 999.3 999.6 0.0
25/12:30am 6.5 0.8 0.8 67 2.3 NW 20 33 11 18 999.6 999.9 0.0
25/12:00am 6.2 1.1 0.9 69 2.1 NNW 17 32 9 17 999.8 1000.1 0.0
 
Date/Time
EST
Temp
°C
App
Temp
°C
Dew
Point
°C
Rel
Hum
%
Delta-T
°C
Wind Press
QNH
hPa
Press
MSL
hPa
Rain since
9am
mm
Dir  Spd
km/h
Gust
km/h
Spd
kts
Gust
kts
24/11:30pm 6.6 2.3 0.7 66 2.4 NNW 13 22 7 12 999.9 1000.2 0.0
24/11:00pm 6.9 1.4 0.4 63 2.6 NNW 19 30 10 16 1000.2 1000.5 0.0
24/10:30pm 6.9 2.8 0.1 62 2.7 NW 11 26 6 14 1000.4 1000.7 0.0
24/10:00pm 6.5 1.7 0.4 65 2.4 NW 15 26 8 14 1000.7 1001.0 0.0
24/09:30pm 6.5 2.5 0.8 67 2.3 NNW 11 22 6 12 1000.9 1001.2 0.0
24/09:00pm 5.9 0.8 0.9 70 2.0 NNW 17 24 9 13 1001.2 1001.5 0.0
24/08:30pm 5.7 1.1 1.4 74 1.7 N 15 22 8 12 1001.4 1001.6 0.0
24/08:00pm 5.9 0.0 1.6 74 1.8 N 22 30 12 16 1001.6 1001.8 0.0
24/07:30pm 6.0 -0.4 1.0 70 2.0 N 24 30 13 16 1001.9 1002.1 0.0
24/07:00pm 5.9 0.3 0.9 70 2.0 N 20 26 11 14 1002.0 1002.2 0.0
24/06:30pm 5.4 -0.1 0.6 71 1.9 N 19 24 10 13 1002.2 1002.5 0.0
24/06:00pm 5.4 1.0 0.4 70 2.0 NNW 13 24 7 13 1002.1 1002.3 0.0
24/05:30pm 5.6 1.2 0.2 68 2.1 NW 13 19 7 10 1002.0 1002.2 0.0
24/05:00pm 5.9 0.3 0.9 70 2.0 NW 20 26 11 14 1002.1 1002.3 0.0
24/04:30pm 6.2 1.5 0.9 69 2.1 NW 15 20 8 11 1002.3 1002.6 0.0
24/04:00pm 6.3 0.3 1.0 69 2.1 NW 22 32 12 17 1002.4 1002.7 0.0
24/03:30pm 6.8 1.8 1.5 69 2.2 NNW 17 26 9 14 1002.3 1002.6 0.0
24/03:00pm 7.5 2.4 0.9 63 2.7 NW 17 24 9 13 1002.2 1002.5 0.0
24/02:30pm 7.4 3.9 1.0 64 2.6 WNW 9 24 5 13 1002.1 1002.3 0.0
24/02:00pm 7.5 1.9 1.4 65 2.5 NW 20 30 11 16 1002.2 1002.5 0.0
24/01:30pm 7.1 1.6 1.6 68 2.3 NW 20 37 11 20 1002.5 1002.8 0.0
24/01:00pm 6.9 -0.6 1.2 67 2.3 NW 30 43 16 23 1002.6 1002.9 0.0
24/12:30pm 6.8 1.8 1.1 67 2.3 WNW 17 35 9 19 1002.9 1003.2 0.0
24/12:00pm 6.7 0.7 1.2 68 2.2 WNW 22 32 12 17 1003.2 1003.5 0.0
24/11:30am 6.5 2.7 1.6 71 2.0 NW 11 26 6 14 1003.4 1003.7 0.0
24/11:00am 6.3 2.5 1.6 72 1.9 W 11 35 6 19 1003.4 1003.7 0.0
24/10:30am 5.8 2.7 1.2 72 1.8 NW 7 35 4 19 1003.5 1003.8 0.0
24/10:00am 5.3 0.7 1.4 76 1.6 WNW 15 35 8 19 1003.5 1003.8 0.0
24/09:30am 4.8 0.8 0.8 75 1.6 W 11 32 6 17 1003.5 1003.8 0.0
24/09:00am 4.6 -1.2 0.2 73 1.7 WNW 20 44 11 24 1003.5 1003.8 16.2
24/08:30am 4.4 -1.7 0.4 75 1.6 WNW 22 39 12 21 1003.4 1003.7 16.2
24/08:00am 3.8 -3.9 0.0 76 1.5 NW 30 48 16 26 1003.4 1003.7 16.2
24/07:51am 4.1 -2.0 0.3 76 1.5 WNW 22 48 12 26 1003.4 1003.7 16.2
24/07:50am 4.2 -1.5 0.5 77 1.4 WNW 20 43 11 23 1003.4 1003.7 16.2
24/07:30am 4.0 0.8 0.7 79 1.3 W 7 24 4 13 1003.2 1003.5 16.2
24/07:00am 3.9 -1.6 0.6 79 1.3 WNW 19 39 10 21 1002.9 1003.2 16.2
24/06:30am 3.8 -0.2 0.5 79 1.3 WNW 11 35 6 19 1002.6 1002.9 16.2
24/06:00am 4.1 -3.1 0.8 79 1.3 NW 28 43 15 23 1002.4 1002.7 16.2
24/05:30am 4.1 -0.3 0.6 78 1.4 WNW 13 33 7 18 1002.2 1002.5 16.2
24/05:00am 4.2 -0.9 0.9 79 1.3 WNW 17 48 9 26 1001.9 1002.1 16.2
24/04:41am 4.2 -3.0 0.4 76 1.5 NW 28 50 15 27 1002.1 1002.3 16.2
24/04:30am 4.2 -2.3 0.2 75 1.5 WNW 24 46 13 25 1002.2 1002.5 16.2
24/04:29am 4.2 -1.9 0.2 75 1.5 WNW 22 46 12 25 1002.2 1002.5 16.2
24/04:00am 4.6 0.3 0.9 77 1.5 WNW 13 33 7 18 1002.2 1002.5 16.2
24/03:30am 4.4 0.4 0.7 77 1.4 WNW 11 35 6 19 1001.8 1002.0 16.2
24/03:00am 3.8 -2.0 -0.2 75 1.5 NW 20 43 11 23 1001.8 1002.0 16.2
24/02:30am 4.3 0.0 0.8 78 1.4 NW 13 39 7 21 1002.2 1002.5 16.2
24/02:00am 3.6 -0.7 1.2 84 0.9 WNW 13 37 7 20 1001.5 1001.7 16.2
24/01:47am 3.1 -2.4 0.8 85 0.9 ESE 19 57 10 31 1001.2 1001.5 16.2
24/01:30am 4.1 0.1 0.3 76 1.5 N 11 43 6 23 1001.2 1001.5 16.2
24/01:00am 3.4 -2.8 1.9 90 0.6 WSW 24 50 13 27 1001.0 1001.3 15.6
24/12:49am 2.8 -4.2 1.8 93 0.4 WSW 28 57 15 31 1000.8 1001.1 15.6
24/12:30am 2.4 -4.4 0.8 89 0.6 WSW 26 61 14 33 1000.7 1001.0 14.4
24/12:24am 2.7 -3.0 0.6 86 0.8 WSW 20 61 11 33 1000.7 1001.0 13.8
24/12:00am 2.6 -4.2 0.7 87 0.7 W 26 69 14 37 1000.9 1001.2 12.8
 
Date/Time
EST
Temp
°C
App
Temp
°C
Dew
Point
°C
Rel
Hum
%
Delta-T
°C
Wind Press
QNH
hPa
Press
MSL
hPa
Rain since
9am
mm
Dir  Spd
km/h
Gust
km/h
Spd
kts
Gust
kts
23/11:53pm 3.0 -4.7 0.1 81 1.1 WSW 30 82 16 44 1000.6 1000.9 12.2
23/11:49pm 4.4 -3.2 0.7 77 1.4 SW 30 82 16 44 999.8 1000.1 12.0
23/11:47pm 4.7 -2.6 0.1 72 1.8 SW 28 74 15 40 1000.4 1000.7 12.0
23/11:30pm 4.1 -6.2 0.6 78 1.4 SW 44 98 24 53 999.6 999.9 12.0
23/11:27pm 5.1 -3.8 1.0 75 1.6 SW 37 98 20 53 999.5 999.8 12.0
23/11:05pm 4.7 -6.0 -0.1 71 1.8 SW 46 91 25 49 999.3 999.6 12.0
23/11:04pm 4.8 -6.3 0.2 72 1.8 SW 48 91 26 49 999.4 999.7 12.0
23/11:00pm 4.7 -8.3 -1.1 66 2.2 SW 57 91 31 49 999.1 999.4 12.0
23/10:45pm 3.4 -5.8 1.4 87 0.8 SW 39 83 21 45 999.2 999.5 11.8
23/10:43pm 3.4 -4.5 1.0 84 0.9 SW 32 83 17 45 999.3 999.6 11.8
23/10:30pm 3.3 -4.8 0.7 83 1.0 WSW 33 72 18 39 999.2 999.5 11.8
23/10:17pm 3.5 -2.3 -0.1 77 1.4 SSW 20 65 11 35 998.9 999.2 11.6
23/10:06pm 4.9 -4.3 -1.5 63 2.4 SW 37 82 20 44 998.3 998.5 11.6
23/10:00pm 5.3 -5.1 -2.0 59 2.7 SW 43 87 23 47 998.2 998.4 11.6
23/09:30pm 3.2 -8.6 -2.1 68 1.9 SW 50 111 27 60 998.0 998.2 11.6
23/09:25pm 2.5 -11.2 -0.9 78 1.2 SW 61 111 33 60 997.8 998.0 11.6
23/09:20pm 4.1 -7.4 0.1 75 1.5 SW 50 107 27 58 996.5 996.8 11.6
23/09:19pm 4.5 -6.3 -0.3 71 1.8 SW 46 107 25 58 996.4 996.7 11.6
23/09:00pm 3.7 -6.3 -1.3 70 1.9 SW 41 83 22 45 997.3 997.5 11.6
23/08:49pm 3.8 -7.5 -1.2 70 1.8 SW 48 93 26 50 996.7 997.0 11.4
23/08:45pm 4.2 -10.3 -1.4 67 2.1 SW 65 113 35 61 996.6 996.9 11.4
23/08:30pm 4.8 -10.6 -2.5 59 2.6 SW 69 104 37 56 996.3 996.6 11.4
23/08:00pm 5.4 -9.9 -1.3 62 2.5 SW 69 106 37 57 995.4 995.7 11.4
23/07:51pm 5.6 -9.5 -3.2 53 3.2 SW 67 98 36 53 995.2 995.5 11.4
23/07:41pm 5.5 -9.4 -4.6 48 3.5 SW 65 109 35 59 994.6 994.8 11.4
23/07:38pm 5.5 -9.3 -3.8 51 3.3 SW 65 102 35 55 994.8 995.0 11.4
23/07:30pm 5.3 -10.2 -2.8 56 2.9 SW 69 102 37 55 994.5 994.7 11.4
23/07:00pm 4.4 -10.7 0.0 73 1.7 SW 69 104 37 56 994.5 994.7 11.4
23/06:50pm 3.5 -10.8 -0.1 77 1.4 SW 65 107 35 58 993.9 994.1 11.4
23/06:45pm 3.5 -12.2 -0.5 75 1.5 SW 72 111 39 60 993.8 994.0 11.0
23/06:37pm 3.8 -7.9 -1.7 67 2.0 SW 50 102 27 55 993.5 993.7 10.8
23/06:35pm 5.2 -4.6 -0.4 67 2.1 SW 41 102 22 55 993.5 993.7 10.8
23/06:30pm 5.2 -4.4 -1.5 62 2.5 SW 39 80 21 43 993.4 993.6 10.8
23/06:03pm 4.6 -8.1 -0.8 68 2.0 SW 56 93 30 50 992.5 992.8 10.8
23/06:01pm 4.4 -8.4 0.0 73 1.7 SW 57 96 31 52 992.8 993.0 10.8
23/06:00pm 4.3 -8.9 -0.1 73 1.7 SW 59 96 32 52 992.9 993.1 10.8
23/05:55pm 3.9 -8.4 -0.5 73 1.7 SW 54 96 29 52 992.5 992.8 10.8
23/05:30pm 4.9 -6.6 -0.1 70 1.9 SW 50 106 27 57 991.6 991.8 10.8
23/05:07pm 4.3 -5.9 -0.5 71 1.8 SW 43 102 23 55 991.0 991.2 10.6
23/05:03pm 4.5 -5.3 -0.5 70 1.9 SW 41 85 22 46 991.1 991.3 10.6
23/05:00pm 3.6 -5.6 1.5 86 0.8 WSW 39 76 21 41 991.4 991.6 10.6
23/04:53pm 2.8 -7.3 0.2 83 1.0 SW 43 78 23 42 991.3 991.5 10.6
23/04:44pm 3.0 -9.3 -0.5 78 1.3 SW 54 106 29 57 991.0 991.2 10.4
23/04:43pm 2.9 -9.0 -0.5 78 1.3 SW 52 106 28 57 991.1 991.3 10.4
23/04:39pm 2.2 -7.3 -1.1 79 1.2 SW 39 106 21 57 990.8 991.0 10.4
23/04:38pm 2.6 -6.1 -0.5 80 1.1 WSW 35 98 19 53 990.8 991.0 10.4
23/04:30pm 4.1 -4.4 0.8 79 1.3 WSW 35 78 19 42 990.9 991.1 10.4
23/04:19pm 2.3 -7.9 0.0 85 0.9 WSW 43 98 23 53 990.4 990.6 10.0
23/04:16pm 2.2 -7.3 -0.4 83 1.0 WSW 39 98 21 53 990.1 990.3 10.0
23/04:00pm 2.6 -8.0 -1.6 74 1.5 SW 44 96 24 52 990.0 990.2 9.6
23/03:58pm 2.5 -7.7 -0.3 82 1.0 SW 43 96 23 52 990.0 990.2 9.6
23/03:52pm 2.9 -5.5 1.4 90 0.6 SW 35 96 19 52 989.6 989.8 9.4
23/03:30pm 1.4 -6.2 0.4 93 0.4 WSW 30 82 16 44 989.6 989.8 8.0
23/03:26pm 1.8 -3.9 0.8 93 0.4 W 20 78 11 42 988.5 988.7 7.8
23/03:00pm 1.8 -5.0 0.9 94 0.3 W 26 72 14 39 988.4 988.6 6.8
23/02:55pm 2.5 -6.3 1.6 94 0.4 WSW 37 72 20 39 987.7 987.9 6.6
23/02:49pm 1.5 -9.1 0.6 94 0.3 SW 46 96 25 52 988.2 988.5 5.8
23/02:43pm 1.8 -6.4 0.5 91 0.5 WSW 33 87 18 47 987.9 988.1 5.6
23/02:34pm 3.8 -1.9 0.3 78 1.3 SW 20 70 11 38 987.7 987.9 5.0
23/02:30pm 4.4 -2.5 0.4 75 1.6 WSW 26 76 14 41 987.4 987.6 5.0
23/02:00pm 2.8 -5.0 1.9 94 0.4 WSW 32 67 17 36 987.2 987.4 5.0
23/01:47pm 2.1 -10.5 1.2 94 0.3 SW 57 102 31 55 987.1 987.3 4.6
23/01:38pm 2.0 -6.2 0.4 89 0.6 SSE 33 102 18 55 986.7 986.9 3.8
23/01:37pm 2.3 -4.9 0.4 87 0.7 SSE 28 80 15 43 987.1 987.3 3.8
23/01:30pm 3.1 -2.4 0.8 85 0.9 N 19 52 10 28 986.0 986.2 3.6
23/01:00pm 1.8 -4.4 -0.1 87 0.7 N 22 72 12 39 986.0 986.2 2.2
23/12:57pm 1.8 -4.4 -0.4 85 0.8 NNE 22 72 12 39 986.3 986.5 2.0
23/12:30pm 3.6 -2.1 -0.4 75 1.5 SSW 19 57 10 31 985.7 985.9 1.8
23/12:00pm 3.7 -1.1 0.1 77 1.4 NNW 15 50 8 27 985.7 985.9 1.8
23/11:30am 3.1 -3.1 -0.5 77 1.3 WSW 22 72 12 39 985.3 985.5 1.8
23/11:26am 3.4 -0.9 0.8 83 1.0 W 13 69 7 37 985.2 985.4 1.8
23/11:00am 3.0 -1.7 0.6 84 0.9 W 15 44 8 24 985.0 985.2 1.8
23/10:30am 2.7 -1.6 1.1 89 0.6 W 13 41 7 22 985.4 985.6 1.8
23/10:12am 1.8 -4.3 0.5 91 0.5 SW 22 80 12 43 984.8 985.0 1.8
23/10:03am 2.0 -4.5 0.5 90 0.6 W 24 80 13 43 985.2 985.4 1.4
23/10:00am 2.0 -5.2 0.7 91 0.5 W 28 80 15 43 985.0 985.2 1.4
23/09:36am 1.4 -4.3 -0.7 86 0.8 SSW 19 76 10 41 984.1 984.2 0.2
23/09:30am 3.1 -1.2 0.8 85 0.9 WNW 13 41 7 22 984.1 984.2 0.2
23/09:00am 2.4 -1.9 0.9 90 0.6 ENE 13 54 7 29 984.0 984.1 -
23/08:30am 3.1 -1.5 1.8 91 0.5 W 15 37 8 20 983.6 983.8 -
23/08:00am 2.5 -2.2 1.2 91 0.5 W 15 41 8 22 983.2 983.4 -
23/07:37am 2.2 -3.5 0.7 90 0.6 NW 20 74 11 40 983.0 983.2 -
23/07:30am 3.2 -1.8 1.6 89 0.6 NNW 17 46 9 25 982.8 983.0 -
23/07:00am 2.3 -5.2 1.3 93 0.4 WSW 30 72 16 39 982.4 982.6 -
23/06:46am 2.9 -2.5 1.3 89 0.6 WSW 19 61 10 33 982.4 982.6 -
23/06:30am 3.9 0.1 1.9 87 0.8 W 11 33 6 18 982.1 982.3 -
23/06:00am 4.2 0.5 2.1 86 0.9 NE 11 30 6 16 981.8 982.0 -
23/05:30am 5.7 0.7 1.2 73 1.8 W 17 52 9 28 981.0 981.1 -
23/05:00am 5.4 -2.7 1.1 74 1.7 WNW 33 54 18 29 981.0 981.1 -
23/04:34am 5.3 -3.2 0.9 73 1.7 WNW 35 57 19 31 980.9 981.0 -
23/04:30am 5.3 -3.6 0.7 72 1.8 WNW 37 52 20 28 980.8 980.9 -
23/04:00am 5.2 -2.7 0.8 73 1.8 WNW 32 56 17 30 981.0 981.1 -
23/03:30am 5.2 -2.9 0.0 69 2.0 WNW 32 52 17 28 981.3 981.5 -
23/03:27am 5.2 -2.1 0.0 69 2.0 WNW 28 50 15 27 981.4 981.6 -
23/03:00am 4.9 -2.9 -0.5 68 2.1 WNW 30 41 16 22 981.6 981.8 0.0
23/02:30am 5.5 -0.4 -0.8 64 2.4 WNW 20 39 11 21 981.8 982.0 -
23/02:00am 5.4 -2.4 -0.8 64 2.4 NW 30 48 16 26 982.1 982.3 -
23/01:30am 5.7 -2.0 -0.1 66 2.3 NW 30 48 16 26 982.5 982.7 -
23/01:00am 5.7 -2.6 -0.4 65 2.4 NW 33 56 18 30 983.0 983.2 -
23/12:38am 5.7 -1.4 1.1 72 1.8 WNW 28 46 15 25 983.4 983.6 -
23/12:30am 5.4 -1.4 1.0 73 1.8 WNW 26 41 14 22 983.5 983.7 -
23/12:00am 5.5 -1.6 1.1 73 1.8 WNW 28 46 15 25 984.0 984.1 -
 
Date/Time
EST
Temp
°C
App
Temp
°C
Dew
Point
°C
Rel
Hum
%
Delta-T
°C
Wind Press
QNH
hPa
Press
MSL
hPa
Rain since
9am
mm
Dir  Spd
km/h
Gust
km/h
Spd
kts
Gust
kts
22/11:58pm 5.5 -1.7 0.9 72 1.8 NW 28 46 15 25 984.0 984.1 -
22/11:30pm 5.7 1.1 1.6 75 1.7 NW 15 35 8 19 983.7 983.9 -
22/11:00pm 5.9 0.9 1.2 72 1.9 NNW 17 46 9 25 984.0 984.1 -
22/10:30pm 6.0 2.5 1.2 71 1.9 ESE 9 28 5 15 984.0 984.1 -
22/10:00pm 6.2 1.9 0.9 69 2.2 WSW 13 44 7 24 984.2 984.3 -
22/09:30pm 6.2 2.0 1.5 72 1.9 W 13 39 7 21 984.3 984.4 -
22/09:00pm 6.0 1.6 2.5 78 1.5 NW 15 46 8 25 983.8 984.0 -
22/08:30pm 5.5 -1.4 2.3 80 1.3 WSW 28 70 15 38 983.1 983.3 -
22/08:06pm 6.1 -1.0 3.3 82 1.2 WSW 30 61 16 33 982.8 983.0 -
22/08:00pm 5.9 0.8 3.1 82 1.2 SW 19 57 10 31 982.6 982.8 -
22/07:30pm 5.8 -0.1 4.0 88 0.8 WSW 24 57 13 31 982.2 982.4 -
22/07:27pm 5.9 0.4 4.1 88 0.8 WSW 22 57 12 31 982.0 982.2 -
22/07:00pm 7.0 3.6 4.1 82 1.3 ESE 11 41 6 22 981.9 982.1 -
22/06:30pm 6.9 3.1 4.0 82 1.3 E 13 61 7 33 981.4 981.6 -
22/06:08pm 7.4 0.7 3.6 77 1.6 WNW 28 56 15 30 979.8 979.9 -
22/06:00pm 7.3 1.1 4.3 81 1.3 WNW 26 59 14 32 979.9 980.0 -
22/05:30pm 6.5 1.6 5.1 91 0.6 NW 20 80 11 43 979.2 979.4 -
22/05:21pm 6.6 0.5 4.9 89 0.8 WNW 26 80 14 43 978.9 979.1 -
22/05:12pm 7.3 2.1 3.5 77 1.6 SW 20 74 11 40 978.1 978.3 1.0
22/05:00pm 9.4 4.2 3.8 68 2.5 WNW 20 59 11 32 978.0 978.2 0.6
22/04:30pm 9.7 4.8 4.1 68 2.5 WNW 19 52 10 28 976.9 977.0 0.6
22/04:20pm 9.8 5.0 4.4 69 2.4 W 19 57 10 31 976.7 976.8 0.6
22/04:00pm 9.9 1.0 5.1 72 2.2 NW 41 76 22 41 976.9 977.0 0.6
22/03:49pm 10.0 -0.9 5.4 73 2.1 WNW 52 82 28 44 976.8 976.9 0.6
22/03:30pm 10.3 -1.4 5.5 72 2.2 NW 56 74 30 40 976.8 976.9 0.6
22/03:25pm 10.2 -0.1 4.8 69 2.5 NW 48 72 26 39 976.8 976.9 0.6
22/03:23pm 10.4 0.5 5.0 69 2.5 NW 46 72 25 39 976.9 977.0 0.6
22/03:00pm 9.9 2.3 5.9 76 1.9 WNW 35 70 19 38 977.4 977.5 0.6
22/02:50pm 9.6 1.6 5.8 77 1.8 NW 37 57 20 31 977.8 978.0 0.6
22/02:30pm 8.8 3.5 6.6 86 1.0 WNW 24 48 13 26 977.0 977.1 0.4
22/02:27pm 8.9 4.5 6.5 85 1.1 WSW 19 48 10 26 977.4 977.5 0.4
22/02:16pm 9.9 1.8 5.3 73 2.1 WNW 37 78 20 42 977.5 977.6 0.2
22/02:00pm 11.9 1.7 5.3 64 3.1 NW 48 74 26 40 977.8 978.0 0.0
22/01:30pm 13.6 4.0 4.5 54 4.2 NW 44 69 24 37 978.1 978.3 0.0
22/01:00pm 13.6 4.0 4.5 54 4.3 NW 44 69 24 37 978.6 978.8 0.0
22/12:30pm 13.5 4.2 5.2 57 3.9 NW 43 65 23 35 979.2 979.4 0.0

Other Formats:

Comma delimited format used in spreadsheet applications
http://www.bom.gov.au/fwo/IDT60801/IDT60801.95986.axf

JavaScript Object Notation format (JSON) in row-major order
http://www.bom.gov.au/fwo/IDT60801/IDT60801.95986.json